Relevés horaires Bierset (Belgique)


Relevés horaires à Bierset - Mardi 30 Avr. 2019
Heure UTC1 Température [°C] Vent [km/h] Hum. [%] Pres.4 [hPa] Visi. [Km] Nébu. [octa] Préc.5 [mm] Cond.
2m. Res. Ros. Dir.2 Vit. Moy. Raf.3
23:00 7.4 7.4 5.8 N 1.9 5.6 7.4 90 1021.4(-0.5/3h) 6 0/8 -- --
22:00 7.5 6.7 5.8 NE 5.6 5.6 7.4 89 1021.5(0.0/3h) 7 0/8 -- --
21:00 8.2 7.5 6.1 NNE 5.6 9.3 13.0 87 1021.8(0.6/3h) 9 0/8 -- --
20:00 9.6 9.1 6.7 N 5.6 7.4 11.1 82 1021.7(0.8/3h) 10 1/8 -- --
19:00 11.4 10.8 6.7 N 7.4 9.3 13.0 73 1021.2(-0.1/3h) 10 1/8 -- --
18:00 13.0 12.3 6.8 N 9.3 9.3 14.8 66 1020.8(-0.7/3h) 10 2/8 0/12h
--
17:00 14.5 14.4 3.9 NE 7.4 7.4 14.8 49 1020.5(-1.3/3h) 20 1/8 -- --
16:00 15.3 15.3 3.9 ENE 7.4 9.3 14.8 46 1020.9(-1.4/3h) 20 1/8 -- --
15:00 15.0 15 3.1 NE 7.4 9.3 14.8 45 1021.3(-1.6/3h) 20 1/8 -- --
14:00 14.7 14.3 3.1 NE 9.3 9.3 14.8 46 1021.8(-1.5/3h) 20 1/8 -- --
13:00 14.4 14.3 5.7 NNE 7.4 7.4 14.8 56 1022.3(-1.3/3h) 20 3/8 -- --
12:00 12.9 12.5 6.2 N 7.4 9.3 13.0 64 1023.1(-0.8/3h) 20 4/8 0/6h
--
11:00 12.6 12.2 6.4 NNE 7.4 7.4 13.0 66 1023.5(0.2/3h) 15 6/8 -- --
10:00 12.9 12.5 6.3 N 7.4 9.3 13.0 64 1023.7(0.2/3h) 15 5/8 -- --
09:00 10.8 10.5 6.8 N 5.6 7.4 9.3 76 1024.1(0.5/3h) 9 7/8 -- --
08:00 10.0 9.6 7.4 N 5.6 5.6 9.3 84 1023.9(0.5/3h) 9 8/8 -- --
07:00 9.2 9.2 7.0 N 3.7 5.6 7.4 86 1023.8(0.3/3h) 11 8/8 -- --
06:00 8.9 8.9 6.6 N 3.7 7.4 13.0 85 1023.8(0.0/3h) 15 8/8 0/12h
--
05:00 8.7 8.7 6.2 N 3.7 5.6 7.4 84 1023.5(-0.2/3h) 15 8/8 -- --
04:00 8.7 8.1 6.0 N 5.6 5.6 9.3 83 1023.5(-0.4/3h) 15 7/8 -- --
03:00 8.8 8.2 6.4 NNE 5.6 7.4 13.0 85 1023.7(-0.3/3h) 15 7/8 -- --
02:00 9.0 8 6.1 NNE 7.4 7.4 13.0 82 1023.7(-0.5/3h) 15 7/8 -- --
01:00 9.6 9.1 7.5 N 5.6 7.4 11.1 87 1023.8(-0.5/3h) 10 8/8 -- --
00:00 9.8 9.4 7.5 N 5.6 7.4 11.1 86 1024(-0.2/3h) 20 7/8 0/6h
0/24h
--

1 Coordinated Universal Time. Actuellement il est 02:00 locale et 00:00 UTC.

2 Le vent souffle depuis la direction indiquée vers la direction oposée.

3 Les rafales max. sont disponible 40 min après l'heure du relevé.

4 Pour les stations d'altitude (plus de 600m) le géopotentiel du niveau le plus proche de la pression obligatoire est indiqué.

5 Les stations disposant d'un diffuseur peuvent indiquer "trace". Cela signifie que des précipitations ont touchés le sol mais que la quantité est inférieure à 0.1 mm.

Récapitulatif de la journée
Température [°C] Vent [km/h] Ensoleillement4 [h] Precipitations totale5 [mm] Pression [Hpa]
Min1 Max.2 Moy.3 Max. Min Max.
8.6 15.6 7.6 14.8 0 h 0 min 0 1020.5 1024.1

1 Température minimale relevée entre 18:00 UTC la veille et 18:00 UTC le jour donné.

2 Température maximale relevée entre 06:00 UTC le jour donné et 06:00 UTC le lendemain.

3 Vent moyen de la journée basé sur les relevés horaires.

4 Ensoleillement en heures relevé entre 06:00 UTC la veille et 06:00 UTC le jour donné.

5 Précipitations totales tombées entre 06:00 UTC la jour donné et 06:00 UTC le lendemain.

Graphiques horaires